Terminal Aerodrome Forecast
Issued by NWS Flagstaff, AZ

Home | Current Version | Previous Version | Text Only | Print | Product List | Glossary On
Versions: 1 2 3 4 5 6 7 8 9 10 11 12 13 14 15 16 17 18 19
000
FTUS45 KFGZ 300520
TAFFLG
TAF
KFLG 300520Z 3006/3106 02006KT P6SM FEW250
     FM301000 VRB05KT P6SM FEW250
     FM301630 22015G22KT P6SM SCT250
     FM302000 23029G39KT P6SM SCT100
     FM310200 23020G30KT P6SM FEW030 BKN070=

USA.gov is the U.S. government's official web portal to all federal, state and local government web resources and services.